createdAt,value
2022-11-28T00:01:17.092Z,7.15
2022-11-28T00:03:43.622Z,7.65
2022-11-28T00:06:10.337Z,7.95
2022-11-28T00:08:37.130Z,8.30
2022-11-28T00:11:09.167Z,7.70
2022-11-28T00:13:36.847Z,7.90
2022-11-28T00:16:05.384Z,6.80
2022-11-28T00:18:32.264Z,7.78
2022-11-28T00:21:01.032Z,7.60
2022-11-28T00:23:28.106Z,6.97
2022-11-28T00:25:59.316Z,7.55
2022-11-28T00:28:25.833Z,7.10
2022-11-28T00:30:52.279Z,7.30
2022-11-28T00:33:18.799Z,6.65
2022-11-28T00:35:45.241Z,7.10
2022-11-28T00:38:11.755Z,7.07
2022-11-28T00:40:38.598Z,8.13
2022-11-28T00:43:05.159Z,6.68
2022-11-28T00:45:31.760Z,6.78
2022-11-28T00:47:58.156Z,7.05
2022-11-28T00:50:25.122Z,6.72
2022-11-28T00:52:51.775Z,7.10
2022-11-28T00:55:18.241Z,6.45
2022-11-28T00:57:46.342Z,7.47
2022-11-28T01:00:13.363Z,6.85
2022-11-28T01:02:40.044Z,6.40
2022-11-28T01:05:07.018Z,5.95
2022-11-28T01:07:34.027Z,6.70
2022-11-28T01:10:00.568Z,6.65
2022-11-28T01:12:27.006Z,6.90
2022-11-28T01:14:53.659Z,6.43
2022-11-28T01:17:20.058Z,6.53
2022-11-28T01:19:46.552Z,6.13
2022-11-28T01:22:13.018Z,6.47
2022-11-28T01:24:39.668Z,6.95
2022-11-28T01:27:06.238Z,6.25
2022-11-28T01:29:32.757Z,6.40
2022-11-28T01:31:59.413Z,5.40
2022-11-28T01:34:26.034Z,6.10
2022-11-28T01:36:52.570Z,6.60
2022-11-28T01:39:19.249Z,6.32
2022-11-28T01:41:45.834Z,6.90
2022-11-28T01:44:15.555Z,6.50
2022-11-28T01:46:42.856Z,6.43
2022-11-28T01:49:19.741Z,6.60
2022-11-28T01:51:49.203Z,6.13
2022-11-28T01:54:18.588Z,5.97
2022-11-28T01:56:51.219Z,5.88
2022-11-28T01:59:20.194Z,6.72
2022-11-28T02:01:46.774Z,6.53
2022-11-28T02:04:14.213Z,5.82
2022-11-28T02:06:42.208Z,6.30
2022-11-28T02:09:14.118Z,6.43
2022-11-28T02:12:31.717Z,7.32
2022-11-28T02:15:22.989Z,6.38
2022-11-28T02:18:12.036Z,6.60
2022-11-28T02:20:44.721Z,5.60
2022-11-28T02:23:30.584Z,6.97
2022-11-28T02:26:23.443Z,6.07
2022-11-28T02:29:24.457Z,6.43
2022-11-28T02:32:15.798Z,5.50
2022-11-28T02:34:54.946Z,6.47
2022-11-28T02:37:42.696Z,6.72
2022-11-28T02:40:35.337Z,6.68
2022-11-28T02:43:28.315Z,6.07
2022-11-28T02:46:06.677Z,5.40
2022-11-28T02:48:43.954Z,5.80
2022-11-28T02:51:17.140Z,6.20
2022-11-28T02:53:45.858Z,6.07
2022-11-28T02:56:13.162Z,5.63
2022-11-28T02:58:39.833Z,5.43
2022-11-28T03:01:12.645Z,6.38
2022-11-28T03:04:02.936Z,6.45
2022-11-28T03:06:49.694Z,6.43
2022-11-28T03:09:35.679Z,6.13
2022-11-28T03:14:49.182Z,5.50
2022-11-28T03:17:38.730Z,5.50
2022-11-28T03:20:15.382Z,6.28
2022-11-28T03:22:54.309Z,5.65
2022-11-28T03:25:25.601Z,5.03
2022-11-28T03:28:01.416Z,5.75
2022-11-28T03:33:01.448Z,5.57
2022-11-28T03:35:32.439Z,5.10
2022-11-28T03:38:13.078Z,5.47
2022-11-28T03:40:45.690Z,4.75
2022-11-28T03:43:19.192Z,5.30
2022-11-28T03:45:51.486Z,5.10
2022-11-28T03:48:30.829Z,5.10
2022-11-28T03:51:14.460Z,4.95
2022-11-28T03:53:43.951Z,5.70
2022-11-28T03:56:26.352Z,5.50
2022-11-28T03:59:00.696Z,5.00
2022-11-28T04:01:34.266Z,5.13
2022-11-28T04:04:30.509Z,5.45
2022-11-28T04:07:22.739Z,5.70
2022-11-28T04:09:59.644Z,5.68
2022-11-28T04:12:44.636Z,6.10
2022-11-28T04:15:41.533Z,5.70
2022-11-28T04:18:35.229Z,5.70
2022-11-28T04:21:15.865Z,5.97
2022-11-28T04:23:44.867Z,6.25
2022-11-28T04:26:19.491Z,6.55
2022-11-28T04:28:49.460Z,6.73
2022-11-28T04:31:17.966Z,6.22
2022-11-28T04:33:50.781Z,6.22
2022-11-28T04:36:20.350Z,5.70
2022-11-28T04:38:56.014Z,6.32
2022-11-28T04:44:22.266Z,5.38
2022-11-28T04:46:52.606Z,6.18
2022-11-28T04:49:19.133Z,6.18
2022-11-28T04:52:09.697Z,5.63
2022-11-28T04:54:57.068Z,6.45
2022-11-28T04:57:45.913Z,5.95
2022-11-28T05:00:16.972Z,6.32
2022-11-28T05:02:45.633Z,6.13
2022-11-28T05:05:16.229Z,6.00
2022-11-28T05:07:42.696Z,5.47
2022-11-28T05:10:12.310Z,6.28
2022-11-28T05:12:38.888Z,5.97
2022-11-28T05:15:06.198Z,5.88
2022-11-28T05:17:34.147Z,6.47
2022-11-28T05:20:03.353Z,6.55
2022-11-28T05:22:29.756Z,6.07
2022-11-28T05:24:56.258Z,5.82
2022-11-28T05:27:22.717Z,6.35
2022-11-28T05:29:52.217Z,6.85
2022-11-28T05:32:18.916Z,6.65
2022-11-28T05:34:45.355Z,5.95
2022-11-28T05:37:11.870Z,6.50
2022-11-28T05:39:38.485Z,7.43
2022-11-28T05:42:05.079Z,6.55
2022-11-28T05:44:31.568Z,6.70
2022-11-28T05:46:58.009Z,6.35
2022-11-28T05:49:25.433Z,6.70
2022-11-28T05:51:51.854Z,6.43
2022-11-28T05:54:18.256Z,6.53
2022-11-28T05:56:44.678Z,6.78
2022-11-28T05:59:13.351Z,6.25
2022-11-28T06:01:40.100Z,6.85
2022-11-28T06:04:06.678Z,6.25
2022-11-28T06:06:35.394Z,6.35
2022-11-28T06:09:02.361Z,5.90
2022-11-28T06:11:30.800Z,6.35
2022-11-28T06:13:57.311Z,6.05
2022-11-28T06:16:26.335Z,6.57
2022-11-28T06:18:58.219Z,6.50
2022-11-28T06:21:25.403Z,6.30
2022-11-28T06:23:51.933Z,6.03
2022-11-28T06:26:23.015Z,6.95
2022-11-28T06:28:49.973Z,6.57
2022-11-28T06:31:19.331Z,6.85
2022-11-28T06:33:48.413Z,7.07
2022-11-28T06:36:16.988Z,6.00
2022-11-28T06:38:44.399Z,7.20
2022-11-28T06:41:14.495Z,6.13
2022-11-28T06:43:41.757Z,6.68
2022-11-28T06:46:16.255Z,6.95
2022-11-28T06:48:54.854Z,6.10
2022-11-28T06:51:21.686Z,6.15
2022-11-28T06:53:57.215Z,7.13
2022-11-28T06:56:26.348Z,6.18
2022-11-28T06:58:59.528Z,7.40
2022-11-28T07:01:29.799Z,6.00
2022-11-28T07:04:08.840Z,6.88
2022-11-28T07:06:36.046Z,7.22
2022-11-28T07:09:06.331Z,7.07
2022-11-28T07:11:49.866Z,6.87
2022-11-28T07:14:17.758Z,7.20
2022-11-28T07:16:44.846Z,6.63
2022-11-28T07:19:13.763Z,7.32
2022-11-28T07:21:42.243Z,6.72
2022-11-28T07:24:10.987Z,6.82
2022-11-28T07:26:41.393Z,7.30
2022-11-28T07:29:13.719Z,6.95
2022-11-28T07:31:44.076Z,6.93
2022-11-28T07:37:07.663Z,7.57
2022-11-28T07:39:38.295Z,7.53
2022-11-28T07:42:11.857Z,7.10
2022-11-28T07:44:41.371Z,7.00
2022-11-28T07:47:08.806Z,7.50
2022-11-28T07:49:36.018Z,8.35
2022-11-28T07:52:04.128Z,7.35
2022-11-28T07:54:30.719Z,7.45
2022-11-28T07:57:14.651Z,7.70
2022-11-28T07:59:41.552Z,8.32
2022-11-28T08:02:39.804Z,8.55
2022-11-28T08:55:53.627Z,8.23
2022-11-28T08:58:28.104Z,9.38
2022-11-28T09:01:12.781Z,8.40
2022-11-28T09:10:13.486Z,8.25
2022-11-28T09:14:25.618Z,8.63
2022-11-28T09:29:24.355Z,9.38
2022-11-28T09:38:36.508Z,8.65
2022-11-28T09:41:45.317Z,9.07
2022-11-28T09:44:45.508Z,8.48
2022-11-28T09:47:27.814Z,9.00
2022-11-28T09:50:41.091Z,8.65
2022-11-28T09:53:34.424Z,9.93
2022-11-28T09:56:53.151Z,9.43
2022-11-28T09:59:33.920Z,9.05
2022-11-28T10:03:37.410Z,8.75
2022-11-28T10:07:50.975Z,8.88
2022-11-28T10:17:25.297Z,8.68
2022-11-28T10:22:51.342Z,8.40
2022-11-28T10:32:09.869Z,8.05
2022-11-28T10:37:33.937Z,7.68
2022-11-28T10:40:36.925Z,7.70
2022-11-28T10:43:34.485Z,8.48
2022-11-28T10:46:12.802Z,8.23
2022-11-28T10:48:58.444Z,7.45
2022-11-28T10:51:51.225Z,8.75
2022-11-28T10:54:46.964Z,8.30
2022-11-28T10:57:42.985Z,8.38
2022-11-28T11:00:13.120Z,8.13
2022-11-28T11:02:51.516Z,8.13
2022-11-28T11:05:29.589Z,8.88
2022-11-28T11:07:59.798Z,8.82
2022-11-28T11:10:41.462Z,8.35
2022-11-28T11:13:20.737Z,7.85
2022-11-28T11:15:58.221Z,8.98
2022-11-28T11:18:29.196Z,7.15
2022-11-28T11:21:09.982Z,8.27
2022-11-28T11:23:38.433Z,9.13
2022-11-28T11:26:10.305Z,8.73
2022-11-28T11:28:50.779Z,8.30
2022-11-28T11:31:24.555Z,8.32
2022-11-28T11:34:00.393Z,8.23
2022-11-28T11:36:30.277Z,8.32
2022-11-28T11:39:22.010Z,7.97
2022-11-28T11:42:10.658Z,8.27
2022-11-28T11:44:37.625Z,8.63
2022-11-28T11:47:07.482Z,10.30
2022-11-28T11:49:41.415Z,10.00
2022-11-28T11:52:25.914Z,9.55
2022-11-28T11:54:56.268Z,10.10
2022-11-28T11:57:33.106Z,10.05
2022-11-28T12:00:06.870Z,9.95
2022-11-28T12:02:59.858Z,9.63
2022-11-28T12:06:06.034Z,9.77
2022-11-28T12:08:36.956Z,10.18
2022-11-28T12:11:19.591Z,10.00
2022-11-28T12:13:46.235Z,9.30
2022-11-28T12:16:24.969Z,9.25
2022-11-28T12:19:20.928Z,10.38
2022-11-28T12:22:18.190Z,9.13
2022-11-28T12:24:51.227Z,9.73
2022-11-28T12:27:34.290Z,8.85
2022-11-28T12:30:25.362Z,10.02
2022-11-28T12:33:10.331Z,10.30
2022-11-28T12:35:47.413Z,9.82
2022-11-28T12:38:31.258Z,11.50
2022-11-28T12:41:13.886Z,9.85
2022-11-28T12:43:55.754Z,10.57
2022-11-28T12:46:42.688Z,10.15
2022-11-28T12:49:19.760Z,9.50
2022-11-28T12:51:59.916Z,10.98
2022-11-28T12:54:53.234Z,10.82
2022-11-28T12:57:42.607Z,10.60
2022-11-28T13:00:20.926Z,9.30
2022-11-28T13:03:24.767Z,10.60
2022-11-28T13:06:24.612Z,9.93
2022-11-28T13:09:21.608Z,10.55
2022-11-28T13:12:26.379Z,9.50
2022-11-28T13:15:07.232Z,10.93
2022-11-28T13:18:00.457Z,10.23
2022-11-28T13:20:41.979Z,9.98
2022-11-28T13:23:20.421Z,9.52
2022-11-28T13:25:56.960Z,11.63
2022-11-28T13:28:51.879Z,10.93
2022-11-28T13:31:29.562Z,9.75
2022-11-28T13:33:56.775Z,10.82
2022-11-28T13:39:41.768Z,10.00
2022-11-28T13:45:46.638Z,10.15
2022-11-28T13:49:13.096Z,10.98
2022-11-28T13:51:31.472Z,10.75
2022-11-28T13:54:18.219Z,9.80
2022-11-28T13:57:05.407Z,10.85
2022-11-28T13:59:33.120Z,11.40
2022-11-28T14:02:02.516Z,10.05
2022-11-28T14:04:31.751Z,10.13
2022-11-28T14:07:06.942Z,10.63
2022-11-28T14:09:53.490Z,10.52
2022-11-28T14:12:50.188Z,9.73
2022-11-28T14:15:53.330Z,10.68
2022-11-28T14:18:57.969Z,9.60
2022-11-28T14:21:40.742Z,10.80
2022-11-28T14:25:04.275Z,9.73
2022-11-28T14:27:37.863Z,9.82
2022-11-28T14:30:16.041Z,10.30
2022-11-28T14:32:43.626Z,10.07
2022-11-28T14:35:51.989Z,9.88
2022-11-28T14:38:41.200Z,10.10
2022-11-28T14:41:11.860Z,11.90
2022-11-28T14:43:46.726Z,11.30
2022-11-28T14:46:21.790Z,10.90
2022-11-28T14:48:57.484Z,11.95
2022-11-28T14:52:37.002Z,11.52
2022-11-28T14:54:56.167Z,10.55
2022-11-28T14:57:25.558Z,11.15
2022-11-28T14:59:54.124Z,10.73
2022-11-28T15:02:32.289Z,11.38
2022-11-28T15:05:14.941Z,11.23
2022-11-28T15:07:59.853Z,10.95
2022-11-28T15:10:43.635Z,12.05
2022-11-28T15:13:26.694Z,11.65
2022-11-28T15:15:54.062Z,11.95
2022-11-28T15:18:23.717Z,12.45
2022-11-28T15:21:01.073Z,11.50
2022-11-28T15:23:38.347Z,11.25
2022-11-28T15:28:35.342Z,12.65
2022-11-28T15:31:05.559Z,11.68
2022-11-28T15:33:32.709Z,12.25
2022-11-28T15:36:03.570Z,11.63
2022-11-28T15:38:31.814Z,14.10
2022-11-28T15:41:00.287Z,12.85
2022-11-28T15:43:27.912Z,12.45
2022-11-28T15:45:59.665Z,12.90
2022-11-28T15:48:40.169Z,12.75
2022-11-28T15:51:07.795Z,12.07
2022-11-28T15:53:40.822Z,12.38
2022-11-28T15:56:15.545Z,12.55
2022-11-28T15:58:44.152Z,12.40
2022-11-28T16:01:24.102Z,12.15
2022-11-28T16:04:05.557Z,12.60
2022-11-28T16:06:35.585Z,12.77
2022-11-28T16:09:23.369Z,12.63
2022-11-28T16:11:52.430Z,14.05
2022-11-28T16:14:29.042Z,13.43
2022-11-28T16:17:01.843Z,13.07
2022-11-28T16:19:31.106Z,12.35
2022-11-28T16:22:07.787Z,13.75
2022-11-28T16:24:51.763Z,11.85
2022-11-28T16:27:39.353Z,13.43
2022-11-28T16:30:41.512Z,12.43
2022-11-28T16:33:41.234Z,13.43
2022-11-28T16:36:26.574Z,12.55
2022-11-28T16:39:06.527Z,14.10
2022-11-28T16:41:33.942Z,13.43
2022-11-28T16:44:03.905Z,13.05
2022-11-28T16:46:39.835Z,13.45
2022-11-28T16:49:24.718Z,13.25
2022-11-28T16:52:23.950Z,12.32
2022-11-28T16:54:54.768Z,13.05
2022-11-28T16:57:22.372Z,13.38
2022-11-28T16:59:54.489Z,13.75
2022-11-28T17:02:23.481Z,13.43
2022-11-28T17:04:52.245Z,15.27
2022-11-28T17:07:23.988Z,14.88
2022-11-28T17:09:50.619Z,15.13
2022-11-28T17:12:26.385Z,14.35
2022-11-28T17:14:54.249Z,14.52
2022-11-28T17:17:23.249Z,15.02
2022-11-28T17:19:50.167Z,14.15
2022-11-28T17:22:20.098Z,14.80
2022-11-28T17:24:48.488Z,15.35
2022-11-28T17:27:15.917Z,15.00
2022-11-28T17:29:43.572Z,15.40
2022-11-28T17:32:13.980Z,14.05
2022-11-28T17:34:42.105Z,14.70
2022-11-28T17:37:09.438Z,14.80
2022-11-28T17:39:35.973Z,15.50
2022-11-28T17:42:02.455Z,15.38
2022-11-28T17:44:31.351Z,15.85
2022-11-28T17:47:00.935Z,15.93
2022-11-28T17:49:28.768Z,16.33
2022-11-28T17:51:55.977Z,16.42
2022-11-28T17:54:24.366Z,14.95
2022-11-28T17:56:52.851Z,16.15
2022-11-28T17:59:22.007Z,16.48
2022-11-28T18:01:49.287Z,16.30
2022-11-28T18:04:22.053Z,15.98
2022-11-28T18:06:48.764Z,15.65
2022-11-28T18:09:16.041Z,15.68
2022-11-28T18:11:46.273Z,16.35
2022-11-28T18:14:13.245Z,16.15
2022-11-28T18:16:42.061Z,14.52
2022-11-28T18:19:08.962Z,15.25
2022-11-28T18:21:35.473Z,15.65
2022-11-28T18:24:02.030Z,14.73
2022-11-28T18:26:29.559Z,15.05
2022-11-28T18:28:58.055Z,15.82
2022-11-28T18:31:27.836Z,15.68
2022-11-28T18:34:00.268Z,16.80
2022-11-28T18:36:30.713Z,16.15
2022-11-28T18:38:59.529Z,16.23
2022-11-28T18:41:27.175Z,15.88
2022-11-28T18:43:58.629Z,16.65
2022-11-28T18:46:27.017Z,17.35
2022-11-28T18:48:53.562Z,17.27
2022-11-28T18:51:30.061Z,15.50
2022-11-28T18:54:00.529Z,15.90
2022-11-28T18:56:29.232Z,14.85
2022-11-28T18:58:57.206Z,15.65
2022-11-28T19:01:31.244Z,15.65
2022-11-28T19:04:03.909Z,15.55
2022-11-28T19:06:31.546Z,16.08
2022-11-28T19:09:01.081Z,15.70
2022-11-28T19:11:29.321Z,14.98
2022-11-28T19:13:57.483Z,15.55
2022-11-28T19:16:30.644Z,15.00
2022-11-28T19:18:58.032Z,15.00
2022-11-28T19:21:31.502Z,15.07
2022-11-28T19:23:59.609Z,14.77
2022-11-28T19:26:29.664Z,14.93
2022-11-28T19:28:57.190Z,15.82
2022-11-28T19:31:27.288Z,14.68
2022-11-28T19:34:02.178Z,13.85
2022-11-28T19:36:34.390Z,14.52
2022-11-28T19:39:02.211Z,15.98
2022-11-28T19:41:29.532Z,15.30
2022-11-28T19:43:56.989Z,16.27
2022-11-28T19:46:24.111Z,16.52
2022-11-28T19:48:51.818Z,15.13
2022-11-28T19:51:19.981Z,16.02
2022-11-28T19:53:46.753Z,14.82
2022-11-28T19:56:19.137Z,16.27
2022-11-28T19:58:46.893Z,13.73
2022-11-28T20:01:18.050Z,15.45
2022-11-28T20:03:47.682Z,14.60
2022-11-28T20:06:26.635Z,15.43
2022-11-28T20:08:56.549Z,14.90
2022-11-28T20:11:26.404Z,15.43
2022-11-28T20:14:07.767Z,16.17
2022-11-28T20:16:36.059Z,15.30
2022-11-28T20:19:04.787Z,14.98
2022-11-28T20:21:33.335Z,15.23
2022-11-28T20:24:04.372Z,15.35
2022-11-28T20:26:39.052Z,17.25
2022-11-28T20:29:07.197Z,16.33
2022-11-28T20:31:45.315Z,14.73
2022-11-28T20:34:16.024Z,14.70
2022-11-28T20:36:43.565Z,14.40
2022-11-28T20:39:11.058Z,15.90
2022-11-28T20:41:40.195Z,14.73
2022-11-28T20:44:06.728Z,15.60
2022-11-28T20:46:35.380Z,14.60
2022-11-28T20:49:04.686Z,15.35
2022-11-28T20:51:33.299Z,14.90
2022-11-28T20:54:00.840Z,15.60
2022-11-28T20:56:31.671Z,14.95
2022-11-28T20:59:00.577Z,14.05
2022-11-28T21:01:30.221Z,16.27
2022-11-28T21:03:57.313Z,16.25
2022-11-28T21:06:23.868Z,15.45
2022-11-28T21:08:50.572Z,15.63
2022-11-28T21:11:43.459Z,15.55
2022-11-28T21:14:06.305Z,14.43
2022-11-28T21:16:37.313Z,15.38
2022-11-28T21:19:07.437Z,15.80
2022-11-28T21:21:36.018Z,13.50
2022-11-28T21:24:05.729Z,14.57
2022-11-28T21:26:37.630Z,14.30
2022-11-28T21:29:09.028Z,14.80
2022-11-28T21:31:39.327Z,14.52
2022-11-28T21:34:05.946Z,14.98
2022-11-28T21:36:32.590Z,15.10
2022-11-28T21:39:00.810Z,15.38
2022-11-28T21:41:30.531Z,14.50
2022-11-28T21:43:58.463Z,14.48
2022-11-28T21:46:26.698Z,14.10
2022-11-28T21:48:53.547Z,15.50
2022-11-28T21:51:24.754Z,14.82
2022-11-28T21:53:52.272Z,14.07
2022-11-28T21:56:21.846Z,14.65
2022-11-28T21:58:48.283Z,14.98
2022-11-28T22:01:15.349Z,14.25
2022-11-28T22:03:43.843Z,14.82
2022-11-28T22:06:17.724Z,15.15
2022-11-28T22:08:44.556Z,15.95
2022-11-28T22:11:13.212Z,16.35
2022-11-28T22:13:45.851Z,15.88
2022-11-28T22:16:19.766Z,15.77
2022-11-28T22:18:49.267Z,15.50
2022-11-28T22:24:05.341Z,16.40
2022-11-28T22:26:32.623Z,15.00
2022-11-28T22:28:59.223Z,16.35
2022-11-28T22:31:25.903Z,15.35
2022-11-28T22:33:52.954Z,15.57
2022-11-28T22:36:21.272Z,15.02
2022-11-28T22:38:49.052Z,15.48
2022-11-28T22:41:27.840Z,16.05
2022-11-28T22:43:57.228Z,14.98
2022-11-28T22:46:24.216Z,15.13
2022-11-28T22:48:51.698Z,15.20
2022-11-28T22:51:21.270Z,15.38
2022-11-28T22:53:47.993Z,15.25
2022-11-28T22:56:15.648Z,15.85
2022-11-28T22:58:44.449Z,15.15
2022-11-28T23:01:23.884Z,16.00
2022-11-28T23:03:51.610Z,16.48
2022-11-28T23:06:21.381Z,15.80
2022-11-28T23:11:23.710Z,14.63
2022-11-28T23:13:50.866Z,15.35
2022-11-28T23:16:42.213Z,17.10
2022-11-28T23:19:18.320Z,15.93
2022-11-28T23:21:47.765Z,15.77
2022-11-28T23:24:19.110Z,17.27
2022-11-28T23:26:46.395Z,17.48
2022-11-28T23:29:13.970Z,17.45
2022-11-28T23:31:41.816Z,16.38
2022-11-28T23:34:09.947Z,17.45
2022-11-28T23:36:43.218Z,17.75
2022-11-28T23:39:13.326Z,16.42
2022-11-28T23:41:40.569Z,16.15
2022-11-28T23:44:07.205Z,17.10
2022-11-28T23:46:34.523Z,17.38
2022-11-28T23:49:01.111Z,17.05
2022-11-28T23:51:27.682Z,17.85
2022-11-28T23:53:54.298Z,17.75
2022-11-28T23:56:27.518Z,16.65
2022-11-28T23:58:55.797Z,17.65
